Time;durP1;ratioP1;P1;durP2;ratioP2;P2;SDS_P1;SDS_P2;PMS_P1;PMS_P2;Temp;Humidity;BMP_temperature;BMP_pressure;BME280_temperature;BME280_humidity;BME280_pressure;Samples;Min_cycle;Max_cycle;Signal;HPM_P1;HPM_P2
2023/10/24 00:00:17;;;;;;;;;;;;;;;;;;4393105;32;67203;-68
2023/10/24 00:03:03;;;;;;;;;;;;;;;;;;4399735;32;59045;-68
2023/10/24 00:05:51;;;;;;;;;;;;;;;;;;4364862;32;72876;-68
2023/10/24 00:08:37;;;;;;;;;;;;;;;;;;4369749;32;66115;-69
2023/10/24 00:11:23;;;;;;;;;;;;;;;;;;4381855;32;67476;-68
2023/10/24 00:14:10;;;;;;;;;;;;;;;;;;4375783;32;59059;-70
2023/10/24 00:16:56;;;;;;;;;;;;;;;;;;4366625;32;68941;-69
2023/10/24 00:19:42;;;;;;;;;;;;;;;;;;4375182;32;69929;-68
2023/10/24 00:22:28;;;;;;;;;;;;;;;;;;4371615;32;68314;-69
2023/10/24 00:25:15;;;;;;;;;;;;;;;;;;4371948;32;71705;-69
2023/10/24 00:28:01;;;;;;;;;;;;;;;;;;4376345;32;66253;-70
2023/10/24 00:30:47;;;;;;;;;;;;;;;;;;4381689;32;68730;-69
2023/10/24 00:33:34;;;;;;;;;;;;;;;;;;4380013;32;66304;-69
2023/10/24 00:36:21;;;;;;;;;;;;;;;;;;4355258;32;70419;-67
2023/10/24 00:39:08;;;;;;;;;;;;;;;;;;4364180;32;66123;-67
2023/10/24 00:41:55;;;;;;;;;;;;;;;;;;4368026;32;67994;-69
2023/10/24 00:44:41;;;;;;;;;;;;;;;;;;4364511;32;60886;-68
2023/10/24 00:47:27;;;;;;;;;;;;;;;;;;4364554;32;70018;-69
2023/10/24 00:50:13;;;;;;;;;;;;;;;;;;4352709;32;68402;-70
2023/10/24 00:53:00;;;;;;;;;;;;;;;;;;4366851;32;67615;-69
2023/10/24 00:55:46;;;;;;;;;;;;;;;;;;4353898;32;60259;-68
2023/10/24 00:58:33;;;;;;;;;;;;;;;;;;4366023;32;69474;-69
2023/10/24 01:01:20;;;;;;;;;;;;;;;;;;4343102;32;70723;-68
2023/10/24 01:04:06;;;;;;;;;;;;;;;;;;4364967;32;66796;-68
2023/10/24 01:06:53;;;;;;;;;;;;;;;;;;4353910;32;73276;-67
2023/10/24 01:09:39;;;;;;;;;;;;;;;;;;4364705;32;65848;-69
2023/10/24 01:12:25;;;;;;;;;;;;;;;;;;4359316;32;68915;-67
2023/10/24 01:15:12;;;;;;;;;;;;;;;;;;4354288;32;60211;-68
2023/10/24 01:17:58;;;;;;;;;;;;;;;;;;4366594;32;70153;-68
2023/10/24 01:20:44;;;;;;;;;;;;;;;;;;4363549;32;65865;-68
2023/10/24 01:23:31;;;;;;;;;;;;;;;;;;4364077;32;68176;-69
2023/10/24 01:26:17;;;;;;;;;;;;;;;;;;4377573;32;58992;-69
2023/10/24 01:29:03;;;;;;;;;;;;;;;;;;4365038;32;69765;-69
2023/10/24 01:31:50;;;;;;;;;;;;;;;;;;4368614;32;68627;-69
2023/10/24 01:34:37;;;;;;;;;;;;;;;;;;4353571;32;68130;-67
2023/10/24 01:37:24;;;;;;;;;;;;;;;;;;4360947;32;71691;-69
2023/10/24 01:40:10;;;;;;;;;;;;;;;;;;4354804;32;66008;-70
2023/10/24 01:42:57;;;;;;;;;;;;;;;;;;4358435;32;66876;-69
2023/10/24 01:45:43;;;;;;;;;;;;;;;;;;4361892;32;66985;-70
2023/10/24 01:48:30;;;;;;;;;;;;;;;;;;4367240;32;72088;-70
2023/10/24 01:51:16;;;;;;;;;;;;;;;;;;4377429;32;66089;-68
2023/10/24 01:54:03;;;;;;;;;;;;;;;;;;4363602;32;66919;-69
2023/10/24 01:56:49;;;;;;;;;;;;;;;;;;4364629;32;59420;-70
2023/10/24 01:59:35;;;;;;;;;;;;;;;;;;4353408;32;69919;-69
2023/10/24 02:02:22;;;;;;;;;;;;;;;;;;4345852;32;68345;-69
2023/10/24 02:05:09;;;;;;;;;;;;;;;;;;4371954;32;68320;-69
2023/10/24 02:07:56;;;;;;;;;;;;;;;;;;4361245;32;58812;-71
2023/10/24 02:10:42;;;;;;;;;;;;;;;;;;4364003;32;69318;-70
2023/10/24 02:13:28;;;;;;;;;;;;;;;;;;4365066;32;69294;-68
2023/10/24 02:16:15;;;;;;;;;;;;;;;;;;4367257;32;67612;-70
2023/10/24 02:19:01;;;;;;;;;;;;;;;;;;4373974;32;71571;-69
2023/10/24 02:21:49;;;;;;;;;;;;;;;;;;4352756;32;66954;-70
2023/10/24 02:24:36;;;;;;;;;;;;;;;;;;4342503;32;69023;-70
2023/10/24 02:27:22;;;;;;;;;;;;;;;;;;4357372;32;60371;-70
2023/10/24 02:30:09;;;;;;;;;;;;;;;;;;4364717;32;68953;-70
2023/10/24 02:33:00;;;;;;;;;;;;;;;;;;4359524;32;65745;-70
2023/10/24 02:35:46;;;;;;;;;;;;;;;;;;4352975;32;66148;-70
2023/10/24 02:38:33;;;;;;;;;;;;;;;;;;4370150;32;59738;-70
2023/10/24 02:41:20;;;;;;;;;;;;;;;;;;4369619;32;69647;-70
2023/10/24 02:44:06;;;;;;;;;;;;;;;;;;4353019;32;71000;-70
2023/10/24 02:46:52;;;;;;;;;;;;;;;;;;4372975;32;67116;-70
2023/10/24 02:49:39;;;;;;;;;;;;;;;;;;4351607;32;70919;-70
2023/10/24 02:52:28;;;;;;;;;;;;;;;;;;4364588;32;65129;-71
2023/10/24 02:55:15;;;;;;;;;;;;;;;;;;4363491;32;67141;-70
2023/10/24 02:58:01;;;;;;;;;;;;;;;;;;4368112;32;67996;-69
2023/10/24 03:00:47;;;;;;;;;;;;;;;;;;4351793;32;71505;-69
2023/10/24 03:03:34;;;;;;;;;;;;;;;;;;4332528;32;67572;-69
2023/10/24 03:06:20;;;;;;;;;;;;;;;;;;4365300;32;67147;-70
2023/10/24 03:09:06;;;;;;;;;;;;;;;;;;4360592;32;59636;-69
2023/10/24 03:11:52;;;;;;;;;;;;;;;;;;4352690;32;70781;-70
2023/10/24 03:14:39;;;;;;;;;;;;;;;;;;4356738;32;68448;-70
2023/10/24 03:17:26;;;;;;;;;;;;;;;;;;4369007;32;68244;-69
2023/10/24 03:20:12;;;;;;;;;;;;;;;;;;4352563;32;72649;-69
2023/10/24 03:22:58;;;;;;;;;;;;;;;;;;4341515;32;70109;-70
2023/10/24 03:25:45;;;;;;;;;;;;;;;;;;4364152;32;69044;-71
2023/10/24 03:28:32;;;;;;;;;;;;;;;;;;4367848;32;67046;-70
2023/10/24 03:31:19;;;;;;;;;;;;;;;;;;4358929;32;71155;-70
2023/10/24 03:34:06;;;;;;;;;;;;;;;;;;4363663;32;65508;-70
2023/10/24 03:36:52;;;;;;;;;;;;;;;;;;4350413;32;65679;-70
2023/10/24 03:39:41;;;;;;;;;;;;;;;;;;4351722;32;60623;-70
2023/10/24 03:42:29;;;;;;;;;;;;;;;;;;4366333;32;69849;-70
2023/10/24 03:45:15;;;;;;;;;;;;;;;;;;4364349;32;68933;-70
2023/10/24 03:48:02;;;;;;;;;;;;;;;;;;4352221;32;68526;-70
2023/10/24 03:50:48;;;;;;;;;;;;;;;;;;4358597;32;59209;-70
2023/10/24 03:53:35;;;;;;;;;;;;;;;;;;4363972;32;70101;-70
2023/10/24 03:56:21;;;;;;;;;;;;;;;;;;4365563;32;69907;-69
2023/10/24 03:59:08;;;;;;;;;;;;;;;;;;4357381;32;67628;-71
2023/10/24 04:01:54;;;;;;;;;;;;;;;;;;4351956;32;71729;-71
2023/10/24 04:04:40;;;;;;;;;;;;;;;;;;4362235;32;63615;-70
2023/10/24 04:07:27;;;;;;;;;;;;;;;;;;4362589;32;67810;-70
2023/10/24 04:10:14;;;;;;;;;;;;;;;;;;4364466;32;59630;-69
2023/10/24 04:13:01;;;;;;;;;;;;;;;;;;4370828;32;71836;-69
2023/10/24 04:15:51;;;;;;;;;;;;;;;;;;4351427;32;65384;-71
2023/10/24 04:18:37;;;;;;;;;;;;;;;;;;4359865;32;67059;-70
2023/10/24 04:21:24;;;;;;;;;;;;;;;;;;4368839;32;59354;-69
2023/10/24 04:24:10;;;;;;;;;;;;;;;;;;4361673;32;70363;-69
2023/10/24 04:26:57;;;;;;;;;;;;;;;;;;4364683;32;70110;-70
2023/10/24 04:29:44;;;;;;;;;;;;;;;;;;4364922;32;67557;-70
2023/10/24 04:32:31;;;;;;;;;;;;;;;;;;4364518;32;72870;-70
2023/10/24 04:35:17;;;;;;;;;;;;;;;;;;4366258;32;70418;-70
2023/10/24 04:38:03;;;;;;;;;;;;;;;;;;4377672;32;69749;-70
2023/10/24 04:40:50;;;;;;;;;;;;;;;;;;4364432;32;67657;-69
2023/10/24 04:43:36;;;;;;;;;;;;;;;;;;4364554;32;70795;-70
2023/10/24 04:46:23;;;;;;;;;;;;;;;;;;4364891;32;65320;-70
2023/10/24 04:49:10;;;;;;;;;;;;;;;;;;4363988;32;69256;-70
2023/10/24 04:51:56;;;;;;;;;;;;;;;;;;4353962;32;60395;-72
2023/10/24 04:54:43;;;;;;;;;;;;;;;;;;4373867;32;68842;-72
2023/10/24 04:57:30;;;;;;;;;;;;;;;;;;4353684;32;71231;-72
2023/10/24 05:00:17;;;;;;;;;;;;;;;;;;4367400;32;67055;-74
2023/10/24 05:03:03;;;;;;;;;;;;;;;;;;4354597;32;59495;-73
2023/10/24 05:05:49;;;;;;;;;;;;;;;;;;4353987;32;70061;-73
2023/10/24 05:08:35;;;;;;;;;;;;;;;;;;4366389;32;69740;-73
2023/10/24 05:11:22;;;;;;;;;;;;;;;;;;4364694;32;67846;-71
2023/10/24 05:14:08;;;;;;;;;;;;;;;;;;4358845;32;71489;-73
2023/10/24 05:16:54;;;;;;;;;;;;;;;;;;4377323;32;66406;-71
2023/10/24 05:19:41;;;;;;;;;;;;;;;;;;4355470;32;67456;-72
2023/10/24 05:22:28;;;;;;;;;;;;;;;;;;4354144;32;60263;-73
2023/10/24 05:25:16;;;;;;;;;;;;;;;;;;4347605;32;71622;-73
2023/10/24 05:28:03;;;;;;;;;;;;;;;;;;4368005;32;65691;-73
2023/10/24 05:30:53;;;;;;;;;;;;;;;;;;4353737;32;68245;-72
2023/10/24 05:33:40;;;;;;;;;;;;;;;;;;4376438;32;59002;-75
2023/10/24 05:36:26;;;;;;;;;;;;;;;;;;4365530;32;69914;-72
2023/10/24 05:39:13;;;;;;;;;;;;;;;;;;4353811;32;69148;-73
2023/10/24 05:42:01;;;;;;;;;;;;;;;;;;4354051;32;66820;-72
2023/10/24 05:44:48;;;;;;;;;;;;;;;;;;4366987;32;71616;-71
2023/10/24 05:47:34;;;;;;;;;;;;;;;;;;4353866;32;64788;-71
2023/10/24 05:50:21;;;;;;;;;;;;;;;;;;4353125;32;69828;-72
2023/10/24 05:53:08;;;;;;;;;;;;;;;;;;4355143;32;68578;-74
2023/10/24 05:55:54;;;;;;;;;;;;;;;;;;4366754;32;71840;-74
2023/10/24 05:58:40;;;;;;;;;;;;;;;;;;4365561;32;65845;-73
2023/10/24 06:01:27;;;;;;;;;;;;;;;;;;4363934;32;67648;-74
2023/10/24 06:04:13;;;;;;;;;;;;;;;;;;4370555;32;59098;-71
2023/10/24 06:07:02;;;;;;;;;;;;;;;;;;4357326;32;71142;-73
2023/10/24 06:09:49;;;;;;;;;;;;;;;;;;4359735;32;69376;-72
2023/10/24 06:12:35;;;;;;;;;;;;;;;;;;4342105;32;68823;-73
2023/10/24 06:15:22;;;;;;;;;;;;;;;;;;4349166;32;60586;-73
2023/10/24 06:18:08;;;;;;;;;;;;;;;;;;4364456;32;70014;-74
2023/10/24 06:20:54;;;;;;;;;;;;;;;;;;4363683;32;69480;-74
2023/10/24 06:23:40;;;;;;;;;;;;;;;;;;4342719;32;68658;-72
2023/10/24 06:26:27;;;;;;;;;;;;;;;;;;4363593;32;72230;-71
2023/10/24 06:29:13;;;;;;;;;;;;;;;;;;4369363;32;68228;-72
2023/10/24 06:32:00;;;;;;;;;;;;;;;;;;4377387;32;68133;-71
2023/10/24 06:34:47;;;;;;;;;;;;;;;;;;4353130;32;59723;-72
2023/10/24 06:37:36;;;;;;;;;;;;;;;;;;4352697;32;69613;-71
2023/10/24 06:40:22;;;;;;;;;;;;;;;;;;4364429;32;65174;-71
2023/10/24 06:43:08;;;;;;;;;;;;;;;;;;4353048;32;67328;-68
2023/10/24 06:45:54;;;;;;;;;;;;;;;;;;4353125;32;58328;-71
2023/10/24 06:48:42;;;;;;;;;;;;;;;;;;4365078;32;69808;-72
2023/10/24 06:51:28;;;;;;;;;;;;;;;;;;4357744;32;69967;-71
2023/10/24 06:54:15;;;;;;;;;;;;;;;;;;4365472;32;68863;-72
2023/10/24 06:57:01;;;;;;;;;;;;;;;;;;4360452;32;72456;-70
2023/10/24 06:59:47;;;;;;;;;;;;;;;;;;4360927;32;67365;-72
2023/10/24 07:02:34;;;;;;;;;;;;;;;;;;4363010;32;68414;-71
2023/10/24 07:05:21;;;;;;;;;;;;;;;;;;4363166;32;67878;-72
2023/10/24 07:08:07;;;;;;;;;;;;;;;;;;4351952;32;71197;-71
2023/10/24 07:10:54;;;;;;;;;;;;;;;;;;4355236;32;67961;-72
2023/10/24 07:13:40;;;;;;;;;;;;;;;;;;4363986;32;67991;-73
2023/10/24 07:16:27;;;;;;;;;;;;;;;;;;4355995;32;60282;-72
2023/10/24 07:19:13;;;;;;;;;;;;;;;;;;4370041;32;70184;-73
2023/10/24 07:22:01;;;;;;;;;;;;;;;;;;4351805;32;69450;-73
2023/10/24 07:24:47;;;;;;;;;;;;;;;;;;4352143;32;67002;-72
2023/10/24 07:27:34;;;;;;;;;;;;;;;;;;4362929;32;60323;-72
2023/10/24 07:30:21;;;;;;;;;;;;;;;;;;4363230;32;70990;-71
2023/10/24 07:33:08;;;;;;;;;;;;;;;;;;4363726;32;69345;-72
2023/10/24 07:35:54;;;;;;;;;;;;;;;;;;4362325;32;68356;-72
2023/10/24 07:38:40;;;;;;;;;;;;;;;;;;4363509;32;71186;-73
2023/10/24 07:41:27;;;;;;;;;;;;;;;;;;4352165;32;67525;-72
2023/10/24 07:44:13;;;;;;;;;;;;;;;;;;4365333;32;67714;-69
2023/10/24 07:46:59;;;;;;;;;;;;;;;;;;4371581;32;58659;-67
2023/10/24 07:49:47;;;;;;;;;;;;;;;;;;4362222;32;69854;-69
2023/10/24 07:52:33;;;;;;;;;;;;;;;;;;4362509;32;66251;-72
2023/10/24 07:55:20;;;;;;;;;;;;;;;;;;4365591;32;68066;-74
2023/10/24 07:58:08;;;;;;;;;;;;;;;;;;4376879;32;58930;-75
2023/10/24 08:00:55;;;;;;;;;;;;;;;;;;4352688;32;69330;-75
2023/10/24 08:03:43;;;;;;;;;;;;;;;;;;4365526;32;69694;-73
2023/10/24 08:06:29;;;;;;;;;;;;;;;;;;4356413;32;65535;-73
2023/10/24 08:09:16;;;;;;;;;;;;;;;;;;4354191;32;72887;-74
2023/10/24 08:12:02;;;;;;;;;;;;;;;;;;4379064;32;64999;-75
2023/10/24 08:14:49;;;;;;;;;;;;;;;;;;4374708;32;67306;-76
2023/10/24 08:17:35;;;;;;;;;;;;;;;;;;4366247;32;67365;-74
2023/10/24 08:20:22;;;;;;;;;;;;;;;;;;4355065;32;69499;-76
2023/10/24 08:23:08;;;;;;;;;;;;;;;;;;4346898;32;65320;-72
2023/10/24 08:25:56;;;;;;;;;;;;;;;;;;4353694;32;68729;-75
2023/10/24 08:28:43;;;;;;;;;;;;;;;;;;4355168;32;59208;-73
2023/10/24 08:31:29;;;;;;;;;;;;;;;;;;4365407;32;69118;-74
2023/10/24 08:34:15;;;;;;;;;;;;;;;;;;4368117;32;68396;-74
2023/10/24 08:37:05;;;;;;;;;;;;;;;;;;4373603;32;67927;-73
2023/10/24 08:39:52;;;;;;;;;;;;;;;;;;4354577;32;71486;-74
2023/10/24 08:42:38;;;;;;;;;;;;;;;;;;4366407;32;69548;-74
2023/10/24 08:45:25;;;;;;;;;;;;;;;;;;4365381;32;68447;-72
2023/10/24 08:48:11;;;;;;;;;;;;;;;;;;4365055;32;66707;-74
2023/10/24 08:50:57;;;;;;;;;;;;;;;;;;4364478;32;70769;-75
2023/10/24 08:53:44;;;;;;;;;;;;;;;;;;4377339;32;65065;-74
2023/10/24 08:56:33;;;;;;;;;;;;;;;;;;4368181;32;67208;-73
2023/10/24 08:59:19;;;;;;;;;;;;;;;;;;4373227;32;59559;-72
2023/10/24 09:02:09;;;;;;;;;;;;;;;;;;4365562;32;70183;-74
2023/10/24 09:04:55;;;;;;;;;;;;;;;;;;4362683;32;68162;-73
2023/10/24 09:07:41;;;;;;;;;;;;;;;;;;4364935;32;67492;-73
2023/10/24 09:10:28;;;;;;;;;;;;;;;;;;4355978;32;60785;-72
2023/10/24 09:13:14;;;;;;;;;;;;;;;;;;4364393;32;69140;-71
2023/10/24 09:16:04;;;;;;;;;;;;;;;;;;4356374;32;69343;-71
2023/10/24 09:18:50;;;;;;;;;;;;;;;;;;4352267;32;68141;-73
2023/10/24 09:21:37;;;;;;;;;;;;;;;;;;4353924;32;73194;-72
2023/10/24 09:24:23;;;;;;;;;;;;;;;;;;4364815;32;66676;-72
2023/10/24 09:27:09;;;;;;;;;;;;;;;;;;4372705;32;67510;-71
2023/10/24 09:29:56;;;;;;;;;;;;;;;;;;4357419;32;67097;-74
2023/10/24 09:32:44;;;;;;;;;;;;;;;;;;4368585;32;73409;-72
2023/10/24 09:35:30;;;;;;;;;;;;;;;;;;4363485;32;67952;-72
2023/10/24 09:38:17;;;;;;;;;;;;;;;;;;4356160;32;67543;-73
2023/10/24 09:41:03;;;;;;;;;;;;;;;;;;4359598;32;62284;-73
2023/10/24 09:43:49;;;;;;;;;;;;;;;;;;4375244;32;70308;-72
2023/10/24 09:46:36;;;;;;;;;;;;;;;;;;4364951;32;69932;-73
2023/10/24 09:49:23;;;;;;;;;;;;;;;;;;4362694;32;67875;-73
2023/10/24 09:52:09;;;;;;;;;;;;;;;;;;4356041;32;71809;-72
2023/10/24 09:54:56;;;;;;;;;;;;;;;;;;4373511;32;70164;-73
2023/10/24 09:57:44;;;;;;;;;;;;;;;;;;4364638;32;68979;-72
2023/10/24 10:00:32;;;;;;;;;;;;;;;;;;4367659;32;67333;-73
2023/10/24 10:03:18;;;;;;;;;;;;;;;;;;4370536;32;70533;-72
2023/10/24 10:06:06;;;;;;;;;;;;;;;;;;4377708;32;66159;-73
2023/10/24 10:08:52;;;;;;;;;;;;;;;;;;4364514;32;67406;-72
2023/10/24 10:11:38;;;;;;;;;;;;;;;;;;4363537;32;59905;-73
2023/10/24 10:14:33;;;;;;;;;;;;;;;;;;4356865;32;70279;-73
2023/10/24 10:17:26;;;;;;;;;;;;;;;;;;4370288;32;68673;-72
2023/10/24 10:20:30;;;;;;;;;;;;;;;;;;4364896;32;67847;-73
2023/10/24 10:23:18;;;;;;;;;;;;;;;;;;4356053;32;59009;-72
2023/10/24 10:26:14;;;;;;;;;;;;;;;;;;4358688;32;71249;-73
2023/10/24 10:29:08;;;;;;;;;;;;;;;;;;4361342;32;69665;-76
2023/10/24 10:32:12;;;;;;;;;;;;;;;;;;4353201;32;67752;-72
2023/10/24 10:34:59;;;;;;;;;;;;;;;;;;4370927;32;72905;-73
2023/10/24 10:38:03;;;;;;;;;;;;;;;;;;4356928;32;65757;-73
2023/10/24 10:40:50;;;;;;;;;;;;;;;;;;4353416;32;67346;-73
2023/10/24 10:43:37;;;;;;;;;;;;;;;;;;4363687;32;59157;-73
2023/10/24 10:46:25;;;;;;;;;;;;;;;;;;4368777;32;71449;-73
2023/10/24 10:49:12;;;;;;;;;;;;;;;;;;4352927;32;66083;-73
2023/10/24 10:51:58;;;;;;;;;;;;;;;;;;4375893;32;68196;-73
2023/10/24 10:54:48;;;;;;;;;;;;;;;;;;4357191;32;60289;-72
2023/10/24 10:57:41;;;;;;;;;;;;;;;;;;4358989;32;70119;-73
2023/10/24 11:00:29;;;;;;;;;;;;;;;;;;4364136;32;69249;-73
2023/10/24 11:03:38;;;;;;;;;;;;;;;;;;4356500;32;68919;-73
2023/10/24 11:06:26;;;;;;;;;;;;;;;;;;4362211;32;74133;-74
2023/10/24 11:09:13;;;;;;;;;;;;;;;;;;4356606;32;66019;-73
2023/10/24 11:12:18;;;;;;;;;;;;;;;;;;4363548;32;69142;-71
2023/10/24 11:15:05;;;;;;;;;;;;;;;;;;4363178;32;67861;-73
2023/10/24 11:17:52;;;;;;;;;;;;;;;;;;4365938;32;71982;-74
2023/10/24 11:20:38;;;;;;;;;;;;;;;;;;4357001;32;65748;-72
2023/10/24 11:23:25;;;;;;;;;;;;;;;;;;4358440;32;67809;-73
2023/10/24 11:26:11;;;;;;;;;;;;;;;;;;4364977;32;60007;-73
2023/10/24 11:28:58;;;;;;;;;;;;;;;;;;4360583;32;70081;-73
2023/10/24 11:31:47;;;;;;;;;;;;;;;;;;4362162;32;69984;-73
2023/10/24 11:34:34;;;;;;;;;;;;;;;;;;4362656;32;66741;-72
2023/10/24 11:37:20;;;;;;;;;;;;;;;;;;4351514;32;58595;-72
2023/10/24 11:40:07;;;;;;;;;;;;;;;;;;4374979;32;68581;-73
2023/10/24 11:43:02;;;;;;;;;;;;;;;;;;4360916;32;70060;-72
2023/10/24 11:45:49;;;;;;;;;;;;;;;;;;4360422;32;68054;-73
2023/10/24 11:48:35;;;;;;;;;;;;;;;;;;4362746;32;71902;-73
2023/10/24 11:51:22;;;;;;;;;;;;;;;;;;4372733;32;64945;-73
2023/10/24 11:54:08;;;;;;;;;;;;;;;;;;4367694;32;68028;-73
2023/10/24 11:56:54;;;;;;;;;;;;;;;;;;4368136;32;59120;-72
2023/10/24 11:59:40;;;;;;;;;;;;;;;;;;4352108;32;71614;-73
2023/10/24 12:02:27;;;;;;;;;;;;;;;;;;4344522;32;65017;-72
2023/10/24 12:05:16;;;;;;;;;;;;;;;;;;4359258;32;69721;-73
2023/10/24 12:08:03;;;;;;;;;;;;;;;;;;4363214;32;58688;-72
2023/10/24 12:10:56;;;;;;;;;;;;;;;;;;4361181;32;69080;-73
2023/10/24 12:13:42;;;;;;;;;;;;;;;;;;4358539;32;68494;-73
2023/10/24 12:16:29;;;;;;;;;;;;;;;;;;4341509;32;65675;-73
2023/10/24 12:19:15;;;;;;;;;;;;;;;;;;4351816;32;70795;-73
2023/10/24 12:22:02;;;;;;;;;;;;;;;;;;4363078;32;66014;-73
2023/10/24 12:24:48;;;;;;;;;;;;;;;;;;4351773;32;70485;-72
2023/10/24 12:27:35;;;;;;;;;;;;;;;;;;4365838;32;67786;-73
2023/10/24 12:30:20;;;;;;;;;;;;;;;;;;3818028;37;43907;-73
2023/10/24 12:33:06;;;;;;;;;;;;;;;;;;4377260;32;59597;-73
2023/10/24 12:35:52;;;;;;;;;;;;;;;;;;4376738;32;69734;-72
2023/10/24 12:38:39;;;;;;;;;;;;;;;;;;4368509;32;70418;-72
2023/10/24 12:41:25;;;;;;;;;;;;;;;;;;4366356;32;69185;-72
2023/10/24 12:44:11;;;;;;;;;;;;;;;;;;4366428;32;70742;-73
2023/10/24 12:46:58;;;;;;;;;;;;;;;;;;4366439;32;64080;-73
2023/10/24 12:49:44;;;;;;;;;;;;;;;;;;4376547;32;68669;-73
2023/10/24 12:52:30;;;;;;;;;;;;;;;;;;4375899;32;58230;-73
2023/10/24 12:55:19;;;;;;;;;;;;;;;;;;4383804;32;72365;-73
2023/10/24 12:58:05;;;;;;;;;;;;;;;;;;4379133;32;65063;-72
2023/10/24 13:00:52;;;;;;;;;;;;;;;;;;4379665;32;67903;-72
2023/10/24 13:03:38;;;;;;;;;;;;;;;;;;4351687;32;59856;-74
2023/10/24 13:06:25;;;;;;;;;;;;;;;;;;4367358;32;69721;-73
2023/10/24 13:09:11;;;;;;;;;;;;;;;;;;4361238;32;68519;-73
2023/10/24 13:11:58;;;;;;;;;;;;;;;;;;4366227;32;68075;-72
2023/10/24 13:14:45;;;;;;;;;;;;;;;;;;4369304;32;72075;-73
2023/10/24 13:17:31;;;;;;;;;;;;;;;;;;4369926;32;66039;-73
2023/10/24 13:20:18;;;;;;;;;;;;;;;;;;4355623;32;69278;-73
2023/10/24 13:23:04;;;;;;;;;;;;;;;;;;4361322;32;67707;-73
2023/10/24 13:25:50;;;;;;;;;;;;;;;;;;4354218;32;72610;-73
2023/10/24 13:28:37;;;;;;;;;;;;;;;;;;4364789;32;66174;-73
2023/10/24 13:31:23;;;;;;;;;;;;;;;;;;4372949;32;68052;-72
2023/10/24 13:34:10;;;;;;;;;;;;;;;;;;4353654;32;62663;-72
2023/10/24 13:36:56;;;;;;;;;;;;;;;;;;4370256;32;70766;-73
2023/10/24 13:39:42;;;;;;;;;;;;;;;;;;4362588;32;69465;-73
2023/10/24 13:42:28;;;;;;;;;;;;;;;;;;4349970;32;70339;-73
2023/10/24 13:45:15;;;;;;;;;;;;;;;;;;4356125;32;60612;-73
2023/10/24 13:48:01;;;;;;;;;;;;;;;;;;4345900;32;70388;-73
2023/10/24 13:50:48;;;;;;;;;;;;;;;;;;4366090;32;69791;-73
2023/10/24 13:53:34;;;;;;;;;;;;;;;;;;4370974;32;67330;-73
2023/10/24 13:56:20;;;;;;;;;;;;;;;;;;4345202;32;72419;-71
2023/10/24 13:59:07;;;;;;;;;;;;;;;;;;4360990;32;64896;-73
2023/10/24 14:01:53;;;;;;;;;;;;;;;;;;4369330;32;67347;-73
2023/10/24 14:04:40;;;;;;;;;;;;;;;;;;4345709;32;60102;-73
2023/10/24 14:07:26;;;;;;;;;;;;;;;;;;4349093;32;70318;-73
2023/10/24 14:10:12;;;;;;;;;;;;;;;;;;4353037;32;67433;-73
2023/10/24 14:12:58;;;;;;;;;;;;;;;;;;4360052;32;66326;-73
2023/10/24 14:15:45;;;;;;;;;;;;;;;;;;4357838;32;58958;-73
2023/10/24 14:18:31;;;;;;;;;;;;;;;;;;4354364;32;71216;-73
2023/10/24 14:21:18;;;;;;;;;;;;;;;;;;4351464;32;68543;-74
2023/10/24 14:24:05;;;;;;;;;;;;;;;;;;4349728;32;67159;-72
2023/10/24 14:26:51;;;;;;;;;;;;;;;;;;4341427;32;71618;-73
2023/10/24 14:29:37;;;;;;;;;;;;;;;;;;4339570;32;66643;-72
2023/10/24 14:32:24;;;;;;;;;;;;;;;;;;4345977;32;67164;-72
2023/10/24 14:35:10;;;;;;;;;;;;;;;;;;4337444;32;68893;-72
2023/10/24 14:37:57;;;;;;;;;;;;;;;;;;4365572;32;71680;-73
2023/10/24 14:40:44;;;;;;;;;;;;;;;;;;4347149;32;65754;-73
2023/10/24 14:43:31;;;;;;;;;;;;;;;;;;4345841;32;68157;-71
2023/10/24 14:46:17;;;;;;;;;;;;;;;;;;4355315;32;58522;-72
2023/10/24 14:49:03;;;;;;;;;;;;;;;;;;4350629;32;71103;-72
2023/10/24 14:51:49;;;;;;;;;;;;;;;;;;4342065;32;70567;-72
2023/10/24 14:54:37;;;;;;;;;;;;;;;;;;4341379;32;69473;-73
2023/10/24 14:57:24;;;;;;;;;;;;;;;;;;4351448;32;57917;-73
2023/10/24 15:00:10;;;;;;;;;;;;;;;;;;4342537;32;71019;-71
2023/10/24 15:02:57;;;;;;;;;;;;;;;;;;4361906;32;69066;-72
2023/10/24 15:05:41;;;;;;;;;;;;;;;;;;3806547;37;43910;-73
2023/10/24 15:08:27;;;;;;;;;;;;;;;;;;4363244;32;61372;-72
2023/10/24 15:11:13;;;;;;;;;;;;;;;;;;4367074;32;71680;-73
2023/10/24 15:14:00;;;;;;;;;;;;;;;;;;4356609;32;68621;-72
2023/10/24 15:16:46;;;;;;;;;;;;;;;;;;4374866;32;68029;-72
2023/10/24 15:19:33;;;;;;;;;;;;;;;;;;4351060;32;71494;-72
2023/10/24 15:22:13;;;;;;;;;;;;;;;;;;3822546;37;43610;-72
2023/10/24 15:24:59;;;;;;;;;;;;;;;;;;4357978;32;60201;-71
2023/10/24 15:27:45;;;;;;;;;;;;;;;;;;4384221;32;69416;-72
2023/10/24 15:30:32;;;;;;;;;;;;;;;;;;4380034;32;68101;-72
2023/10/24 15:33:18;;;;;;;;;;;;;;;;;;4375186;32;66705;-72
2023/10/24 15:36:05;;;;;;;;;;;;;;;;;;4377541;32;71597;-72
2023/10/24 15:38:51;;;;;;;;;;;;;;;;;;4358709;32;66212;-72
2023/10/24 15:41:42;;;;;;;;;;;;;;;;;;4374203;32;66388;-73
2023/10/24 15:44:28;;;;;;;;;;;;;;;;;;4369367;32;59737;-71
2023/10/24 15:47:15;;;;;;;;;;;;;;;;;;4377052;32;73235;-74
2023/10/24 15:50:04;;;;;;;;;;;;;;;;;;4370593;32;67390;-72
2023/10/24 15:52:51;;;;;;;;;;;;;;;;;;4369145;32;67661;-72
2023/10/24 15:55:37;;;;;;;;;;;;;;;;;;4379872;32;58853;-72
2023/10/24 15:58:28;;;;;;;;;;;;;;;;;;4379719;32;68233;-72
2023/10/24 16:01:15;;;;;;;;;;;;;;;;;;4368894;32;69214;-72
2023/10/24 16:04:02;;;;;;;;;;;;;;;;;;4366637;32;69048;-73
2023/10/24 16:06:48;;;;;;;;;;;;;;;;;;4389665;32;70548;-73
2023/10/24 16:09:35;;;;;;;;;;;;;;;;;;4376384;32;64026;-73
2023/10/24 16:12:21;;;;;;;;;;;;;;;;;;4379642;32;68575;-73
2023/10/24 16:15:09;;;;;;;;;;;;;;;;;;4385638;32;66545;-72
2023/10/24 16:17:55;;;;;;;;;;;;;;;;;;4370270;32;72044;-73
2023/10/24 16:20:42;;;;;;;;;;;;;;;;;;4379151;32;66471;-73
2023/10/24 16:23:28;;;;;;;;;;;;;;;;;;4371663;32;68673;-72
2023/10/24 16:26:18;;;;;;;;;;;;;;;;;;4380171;32;59689;-72
2023/10/24 16:29:05;;;;;;;;;;;;;;;;;;4395943;32;69256;-72
2023/10/24 16:31:51;;;;;;;;;;;;;;;;;;4373725;32;67160;-72
2023/10/24 16:34:37;;;;;;;;;;;;;;;;;;4360164;32;70846;-73
2023/10/24 16:37:24;;;;;;;;;;;;;;;;;;4365128;32;58655;-73
2023/10/24 16:40:10;;;;;;;;;;;;;;;;;;4359604;32;70048;-72
2023/10/24 16:42:57;;;;;;;;;;;;;;;;;;4350063;32;69591;-73
2023/10/24 16:45:52;;;;;;;;;;;;;;;;;;4381109;32;66940;-73
2023/10/24 16:48:38;;;;;;;;;;;;;;;;;;4358519;32;71956;-73
2023/10/24 16:51:25;;;;;;;;;;;;;;;;;;4381106;32;66203;-73
2023/10/24 16:54:11;;;;;;;;;;;;;;;;;;4370198;32;67385;-73
2023/10/24 16:59:36;;;;;;;;;;;;;;;;;;3822975;37;43580;-73
2023/10/24 17:02:23;;;;;;;;;;;;;;;;;;4380706;32;59062;-74
2023/10/24 17:05:09;;;;;;;;;;;;;;;;;;4390731;32;68855;-72
2023/10/24 17:07:55;;;;;;;;;;;;;;;;;;4380211;32;68401;-73
2023/10/24 17:10:41;;;;;;;;;;;;;;;;;;4369510;32;67764;-72
2023/10/24 17:13:28;;;;;;;;;;;;;;;;;;4379015;32;72772;-72
2023/10/24 17:16:14;;;;;;;;;;;;;;;;;;4379930;32;65030;-73
2023/10/24 17:19:02;;;;;;;;;;;;;;;;;;4390465;32;67112;-72
2023/10/24 17:21:48;;;;;;;;;;;;;;;;;;4365089;32;60237;-72
2023/10/24 17:24:35;;;;;;;;;;;;;;;;;;4377284;32;71449;-73
2023/10/24 17:27:21;;;;;;;;;;;;;;;;;;4391910;32;66288;-73
2023/10/24 17:30:08;;;;;;;;;;;;;;;;;;4390583;32;66871;-73
2023/10/24 17:32:56;;;;;;;;;;;;;;;;;;4380079;32;59802;-73
2023/10/24 17:35:43;;;;;;;;;;;;;;;;;;4379666;32;70241;-72
2023/10/24 17:38:29;;;;;;;;;;;;;;;;;;4358316;32;69085;-73
2023/10/24 17:41:17;;;;;;;;;;;;;;;;;;4381568;32;68283;-73
2023/10/24 17:44:04;;;;;;;;;;;;;;;;;;4385226;32;73498;-72
2023/10/24 17:46:50;;;;;;;;;;;;;;;;;;4390661;32;65012;-73
2023/10/24 17:49:36;;;;;;;;;;;;;;;;;;4357492;32;69042;-74
2023/10/24 17:52:23;;;;;;;;;;;;;;;;;;4379160;32;66759;-74
2023/10/24 17:55:09;;;;;;;;;;;;;;;;;;4389933;32;72184;-72
2023/10/24 17:57:57;;;;;;;;;;;;;;;;;;4391059;32;65043;-73
2023/10/24 18:00:43;;;;;;;;;;;;;;;;;;4358695;32;66749;-73
2023/10/24 18:03:29;;;;;;;;;;;;;;;;;;4379102;32;59379;-73
2023/10/24 18:06:15;;;;;;;;;;;;;;;;;;4379540;32;69864;-73
2023/10/24 18:09:04;;;;;;;;;;;;;;;;;;4387494;32;69300;-73
2023/10/24 18:11:50;;;;;;;;;;;;;;;;;;4369193;32;66852;-72
2023/10/24 18:14:38;;;;;;;;;;;;;;;;;;4377036;32;60629;-72
2023/10/24 18:17:24;;;;;;;;;;;;;;;;;;4379643;32;69263;-72
2023/10/24 18:20:11;;;;;;;;;;;;;;;;;;4379208;32;71132;-73
2023/10/24 18:22:55;;;;;;;;;;;;;;;;;;3835354;37;43548;-73
2023/10/24 18:25:50;;;;;;;;;;;;;;;;;;4367348;32;60296;-73
2023/10/24 18:28:40;;;;;;;;;;;;;;;;;;4381048;32;70218;-74
2023/10/24 18:31:26;;;;;;;;;;;;;;;;;;4372859;32;70393;-73
2023/10/24 18:34:12;;;;;;;;;;;;;;;;;;4356989;32;68362;-73
2023/10/24 18:37:01;;;;;;;;;;;;;;;;;;4392044;32;71061;-73
2023/10/24 18:39:47;;;;;;;;;;;;;;;;;;4380251;32;65251;-73
2023/10/24 18:42:33;;;;;;;;;;;;;;;;;;4380053;32;66376;-73
2023/10/24 18:45:23;;;;;;;;;;;;;;;;;;4378877;32;59176;-74
2023/10/24 18:48:10;;;;;;;;;;;;;;;;;;4369174;32;71271;-73
2023/10/24 18:51:10;;;;;;;;;;;;;;;;;;4375011;32;67583;-72
2023/10/24 18:54:16;;;;;;;;;;;;;;;;;;4363373;32;66547;-76
2023/10/24 18:57:03;;;;;;;;;;;;;;;;;;4388840;32;60044;-73
2023/10/24 18:59:50;;;;;;;;;;;;;;;;;;4363044;32;71492;-72
2023/10/24 19:02:36;;;;;;;;;;;;;;;;;;4356259;32;71509;-73